Time;durP1;ratioP1;P1;durP2;ratioP2;P2;SDS_P1;SDS_P2;PMS_P1;PMS_P2;Temp;Humidity;BMP_temperature;BMP_pressure;BME280_temperature;BME280_humidity;BME280_pressure;Samples;Min_cycle;Max_cycle;Signal;HPM_P1;HPM_P2
2022/08/02 00:00:11;;;;;;;0.00;0.00;;;15.60;73.20;;;;;;5031367;28;20573;-70
2022/08/02 00:02:37;;;;;;;0.00;0.00;;;15.60;73.30;;;;;;5031497;28;20096;-70
2022/08/02 00:05:04;;;;;;;0.00;0.00;;;15.50;73.40;;;;;;5030170;28;20037;-71
2022/08/02 00:07:29;;;;;;;0.00;0.00;;;15.50;73.30;;;;;;5031506;28;20085;-71
2022/08/02 00:09:55;;;;;;;0.00;0.00;;;15.50;73.40;;;;;;5030645;28;20088;-71
2022/08/02 00:12:21;;;;;;;0.00;0.00;;;15.40;73.60;;;;;;5031394;28;20038;-71
2022/08/02 00:14:46;;;;;;;0.00;0.00;;;15.40;73.30;;;;;;5029754;28;20370;-71
2022/08/02 00:17:12;;;;;;;0.00;0.00;;;15.30;73.30;;;;;;5010997;28;20064;-71
2022/08/02 00:19:38;;;;;;;0.00;0.00;;;15.30;73.20;;;;;;5030489;28;20041;-71
2022/08/02 00:22:03;;;;;;;0.00;0.00;;;15.20;72.90;;;;;;5029739;28;20075;-71
2022/08/02 00:24:29;;;;;;;0.00;0.00;;;15.20;73.20;;;;;;5030778;28;20053;-70
2022/08/02 00:26:55;;;;;;;0.00;0.00;;;15.10;73.00;;;;;;5013638;28;20061;-71
2022/08/02 00:29:20;;;;;;;0.30;0.30;;;15.10;72.90;;;;;;5030398;28;20041;-71
2022/08/02 00:31:46;;;;;;;0.00;0.00;;;15.00;73.10;;;;;;5030868;28;20045;-71
2022/08/02 00:34:11;;;;;;;0.08;0.08;;;15.10;73.10;;;;;;5029481;28;20037;-70
2022/08/02 00:36:37;;;;;;;0.00;0.00;;;15.00;73.00;;;;;;5031149;28;20041;-71
2022/08/02 00:39:03;;;;;;;0.00;0.00;;;14.90;73.20;;;;;;5031006;28;20041;-70
2022/08/02 00:41:28;;;;;;;0.00;0.00;;;14.90;73.80;;;;;;5031726;28;20045;-71
2022/08/02 00:43:54;;;;;;;0.00;0.00;;;14.90;74.00;;;;;;5030462;28;20098;-71
2022/08/02 00:46:20;;;;;;;0.00;0.00;;;14.90;74.20;;;;;;5031327;28;20061;-71
2022/08/02 00:48:45;;;;;;;0.00;0.00;;;14.90;74.40;;;;;;5031089;28;20045;-71
2022/08/02 00:51:11;;;;;;;0.00;0.00;;;14.90;74.60;;;;;;5031064;28;20056;-71
2022/08/02 00:53:37;;;;;;;0.00;0.00;;;14.90;74.80;;;;;;5031705;28;20040;-71
2022/08/02 00:56:03;;;;;;;0.00;0.00;;;14.90;74.90;;;;;;5031388;28;20048;-71
2022/08/02 00:58:29;;;;;;;0.00;0.00;;;14.90;74.80;;;;;;5030883;28;20847;-71
2022/08/02 01:00:56;;;;;;;0.10;0.10;;;14.90;74.30;;;;;;5030927;28;20491;-70
2022/08/02 01:03:23;;;;;;;0.00;0.00;;;14.80;74.20;;;;;;5031545;28;20049;-70
2022/08/02 01:05:49;;;;;;;0.00;0.00;;;14.80;74.40;;;;;;5030564;28;20581;-71
2022/08/02 01:08:15;;;;;;;0.00;0.00;;;14.80;74.60;;;;;;5030394;28;20072;-71
2022/08/02 01:10:40;;;;;;;0.00;0.00;;;14.80;74.80;;;;;;5029413;28;20477;-71
2022/08/02 01:13:06;;;;;;;0.00;0.00;;;14.80;74.80;;;;;;5030396;28;20779;-70
2022/08/02 01:15:37;;;;;;;0.00;0.00;;;14.70;74.60;;;;;;5029393;28;20037;-71
2022/08/02 01:18:10;;;;;;;0.00;0.00;;;14.70;74.30;;;;;;5029340;28;20098;-70
2022/08/02 01:21:00;;;;;;;0.00;0.00;;;14.60;74.10;;;;;;5029178;28;20117;-71
2022/08/02 01:24:00;;;;;;;0.00;0.00;;;14.60;74.60;;;;;;5029018;28;20410;-71
2022/08/02 01:26:38;;;;;;;0.10;0.10;;;14.60;74.80;;;;;;5030057;28;20045;-70
2022/08/02 01:29:32;;;;;;;0.00;0.00;;;14.60;74.90;;;;;;5029215;28;20049;-70
2022/08/02 01:32:11;;;;;;;0.00;0.00;;;14.60;74.90;;;;;;5029763;28;20065;-70
2022/08/02 01:34:42;;;;;;;0.00;0.00;;;14.60;74.90;;;;;;5029418;28;20084;-71
2022/08/02 01:37:21;;;;;;;0.00;0.00;;;14.50;74.60;;;;;;5028686;28;20075;-70
2022/08/02 01:39:56;;;;;;;0.00;0.00;;;14.50;74.20;;;;;;5029008;28;20371;-70
2022/08/02 01:42:24;;;;;;;0.00;0.00;;;14.50;74.70;;;;;;5029511;28;20045;-71
2022/08/02 01:44:52;;;;;;;0.00;0.00;;;14.40;74.70;;;;;;5029180;28;20087;-71
2022/08/02 01:47:26;;;;;;;0.00;0.00;;;14.40;74.70;;;;;;5029225;28;20042;-70
2022/08/02 01:49:56;;;;;;;0.00;0.00;;;14.40;74.60;;;;;;5029031;28;20045;-70
2022/08/02 01:52:25;;;;;;;0.00;0.00;;;14.30;74.60;;;;;;5028572;28;20605;-70
2022/08/02 01:55:12;;;;;;;0.10;0.10;;;14.30;74.70;;;;;;5028964;28;20042;-71
2022/08/02 01:57:47;;;;;;;0.10;0.10;;;14.30;75.40;;;;;;5029419;28;20042;-70
2022/08/02 02:00:14;;;;;;;0.00;0.00;;;14.40;75.40;;;;;;5029177;28;20042;-71
2022/08/02 02:02:46;;;;;;;0.00;0.00;;;14.40;75.50;;;;;;5029285;28;20048;-70
2022/08/02 02:05:15;;;;;;;0.00;0.00;;;14.30;75.30;;;;;;5027973;28;20041;-70
2022/08/02 02:07:42;;;;;;;0.00;0.00;;;14.40;75.20;;;;;;5027329;28;20045;-71
2022/08/02 02:10:10;;;;;;;0.00;0.00;;;14.30;75.10;;;;;;5028844;28;20041;-71
2022/08/02 02:12:38;;;;;;;0.08;0.08;;;14.30;75.00;;;;;;5029354;28;20101;-70
2022/08/02 02:15:08;;;;;;;0.00;0.00;;;14.30;75.10;;;;;;5029059;28;20120;-71
2022/08/02 02:17:34;;;;;;;0.00;0.00;;;14.30;75.10;;;;;;5028968;28;20041;-70
2022/08/02 02:20:01;;;;;;;0.00;0.00;;;14.20;75.20;;;;;;5028105;28;20049;-70
2022/08/02 02:22:27;;;;;;;0.00;0.00;;;14.20;75.30;;;;;;5029054;28;20072;-71
2022/08/02 02:24:54;;;;;;;0.00;0.00;;;14.20;75.60;;;;;;5028463;28;20072;-71
2022/08/02 02:27:23;;;;;;;0.00;0.00;;;14.20;75.40;;;;;;5029155;28;20045;-70
2022/08/02 02:29:50;;;;;;;0.00;0.00;;;14.20;75.40;;;;;;5027046;28;20384;-71
2022/08/02 02:32:17;;;;;;;0.00;0.00;;;14.20;75.40;;;;;;5029122;28;20037;-70
2022/08/02 02:34:45;;;;;;;0.00;0.00;;;14.20;75.50;;;;;;5028778;28;20709;-70
2022/08/02 02:37:19;;;;;;;0.00;0.00;;;14.20;75.40;;;;;;5028221;28;20053;-70
2022/08/02 02:39:47;;;;;;;0.05;0.05;;;14.20;75.50;;;;;;5027964;28;20142;-71
2022/08/02 02:42:16;;;;;;;0.00;0.00;;;14.20;76.00;;;;;;5029839;28;20045;-71
2022/08/02 02:44:44;;;;;;;0.00;0.00;;;14.30;76.10;;;;;;5029046;28;20045;-71
2022/08/02 02:47:13;;;;;;;0.00;0.00;;;14.20;76.10;;;;;;5029600;28;20191;-70
2022/08/02 02:49:39;;;;;;;0.00;0.00;;;14.30;76.70;;;;;;5028177;28;20124;-71
2022/08/02 02:52:05;;;;;;;0.00;0.00;;;14.30;76.70;;;;;;5028491;28;20498;-71
2022/08/02 02:54:33;;;;;;;0.00;0.00;;;14.40;76.70;;;;;;5028429;28;20601;-70
2022/08/02 02:57:00;;;;;;;0.00;0.00;;;14.40;76.50;;;;;;5028851;28;20053;-70
2022/08/02 02:59:27;;;;;;;0.03;0.03;;;14.30;76.70;;;;;;5028273;28;20045;-70
2022/08/02 03:01:53;;;;;;;0.00;0.00;;;14.40;76.70;;;;;;5027311;28;20077;-70
2022/08/02 03:04:19;;;;;;;0.00;0.00;;;14.40;77.00;;;;;;5010090;28;20049;-71
2022/08/02 03:06:46;;;;;;;0.00;0.00;;;14.40;76.80;;;;;;5027469;28;20132;-70
2022/08/02 03:09:11;;;;;;;0.00;0.00;;;14.50;77.00;;;;;;5027629;28;20046;-70
2022/08/02 03:11:38;;;;;;;0.00;0.00;;;14.50;76.90;;;;;;5010889;28;20038;-70
2022/08/02 03:14:08;;;;;;;0.00;0.00;;;14.40;76.50;;;;;;5028369;28;20033;-70
2022/08/02 03:16:44;;;;;;;0.00;0.00;;;14.50;76.80;;;;;;5027377;28;20120;-71
2022/08/02 03:19:10;;;;;;;0.00;0.00;;;14.50;77.10;;;;;;5010501;28;20099;-70
2022/08/02 03:21:36;;;;;;;0.00;0.00;;;14.50;76.90;;;;;;5027517;28;20041;-70
2022/08/02 03:24:02;;;;;;;0.00;0.00;;;14.50;76.30;;;;;;5027999;28;20052;-70
2022/08/02 03:26:27;;;;;;;0.10;0.10;;;14.50;76.60;;;;;;5028196;28;20033;-70
2022/08/02 03:28:53;;;;;;;0.00;0.00;;;14.50;76.80;;;;;;5028508;28;20041;-70
2022/08/02 03:31:18;;;;;;;0.08;0.08;;;14.50;76.50;;;;;;5028097;28;20421;-70
2022/08/02 03:33:45;;;;;;;0.00;0.00;;;14.50;76.20;;;;;;5028489;28;20100;-70
2022/08/02 03:36:15;;;;;;;0.03;0.03;;;14.50;76.10;;;;;;5028013;28;20052;-70
2022/08/02 03:38:42;;;;;;;0.00;0.00;;;14.50;76.10;;;;;;5009487;28;20049;-71
2022/08/02 03:41:10;;;;;;;0.10;0.10;;;14.40;76.00;;;;;;5028217;28;20103;-71
2022/08/02 03:43:37;;;;;;;0.00;0.00;;;14.40;76.10;;;;;;5010689;28;20053;-71
2022/08/02 03:46:04;;;;;;;0.00;0.00;;;14.30;76.10;;;;;;5027397;28;20057;-70
2022/08/02 03:48:32;;;;;;;0.00;0.00;;;14.30;76.20;;;;;;5028067;28;20049;-70
2022/08/02 03:50:59;;;;;;;0.00;0.00;;;14.30;76.40;;;;;;5030054;28;20037;-70
2022/08/02 03:53:24;;;;;;;0.00;0.00;;;14.40;76.80;;;;;;5032223;28;20042;-70
2022/08/02 03:55:50;;;;;;;0.00;0.00;;;14.30;76.90;;;;;;5031052;28;20102;-71
2022/08/02 03:58:21;;;;;;;0.00;0.00;;;14.40;77.20;;;;;;5031597;28;20049;-70
2022/08/02 04:00:47;;;;;;;0.00;0.00;;;14.40;77.40;;;;;;5030985;28;20037;-70
2022/08/02 04:03:14;;;;;;;0.00;0.00;;;14.50;77.40;;;;;;5031227;28;20046;-70
2022/08/02 04:05:40;;;;;;;0.10;0.10;;;14.50;77.40;;;;;;5032232;28;20030;-70
2022/08/02 04:08:05;;;;;;;0.03;0.03;;;14.50;77.50;;;;;;5022558;28;20049;-70
2022/08/02 04:11:29;;;;;;;0.05;0.05;;;14.50;77.80;;;;;;5013120;28;20042;-71
2022/08/02 04:13:17;;;;;;;0.00;0.00;;;14.50;77.80;;;;;;5030499;28;20064;-70
2022/08/02 04:15:43;;;;;;;0.00;0.00;;;14.50;77.70;;;;;;5030350;28;20053;-71
2022/08/02 04:18:09;;;;;;;0.00;0.00;;;14.60;77.70;;;;;;5025254;28;20048;-71
2022/08/02 04:20:35;;;;;;;0.00;0.00;;;14.60;77.90;;;;;;5030249;28;20045;-70
2022/08/02 04:23:05;;;;;;;0.00;0.00;;;14.60;77.70;;;;;;5030833;28;20082;-70
2022/08/02 04:25:32;;;;;;;0.00;0.00;;;14.60;77.40;;;;;;5031393;28;20060;-71
2022/08/02 04:27:59;;;;;;;0.00;0.00;;;14.60;77.40;;;;;;5012724;28;20123;-70
2022/08/02 04:30:25;;;;;;;0.00;0.00;;;14.60;77.70;;;;;;5012526;28;20045;-70
2022/08/02 04:32:51;;;;;;;0.00;0.00;;;14.60;77.30;;;;;;5030672;28;20050;-71
2022/08/02 04:35:17;;;;;;;0.00;0.00;;;14.70;77.70;;;;;;5013259;28;20088;-70
2022/08/02 04:37:44;;;;;;;0.00;0.00;;;14.70;77.60;;;;;;5028790;28;20049;-70
2022/08/02 04:40:11;;;;;;;0.03;0.03;;;14.80;77.90;;;;;;5003509;28;20050;-70
2022/08/02 04:42:37;;;;;;;0.10;0.10;;;14.80;78.10;;;;;;5024923;28;20056;-70
2022/08/02 04:45:04;;;;;;;0.00;0.00;;;14.80;78.40;;;;;;5030189;28;20053;-69
2022/08/02 04:47:30;;;;;;;0.00;0.00;;;14.90;78.30;;;;;;5030212;28;20044;-70
2022/08/02 04:49:55;;;;;;;0.00;0.00;;;14.90;78.40;;;;;;5025562;28;20038;-70
2022/08/02 04:52:21;;;;;;;0.00;0.00;;;15.00;78.20;;;;;;5025942;28;20454;-70
2022/08/02 04:54:47;;;;;;;0.00;0.00;;;15.00;78.10;;;;;;5029951;28;20060;-70
2022/08/02 04:57:58;;;;;;;0.00;0.00;;;15.10;78.10;;;;;;5029210;28;20077;-70
2022/08/02 04:59:58;;;;;;;0.00;0.00;;;15.00;78.20;;;;;;5025990;28;20045;-70
2022/08/02 05:02:24;;;;;;;0.20;0.20;;;15.10;78.50;;;;;;5028429;28;20049;-71
2022/08/02 05:04:50;;;;;;;0.00;0.00;;;15.00;78.20;;;;;;5029353;28;20502;-71
2022/08/02 05:07:16;;;;;;;0.00;0.00;;;15.10;77.90;;;;;;5027962;28;20042;-70
2022/08/02 05:09:41;;;;;;;0.00;0.00;;;15.10;78.10;;;;;;5029181;28;20064;-70
2022/08/02 05:12:07;;;;;;;0.00;0.00;;;15.10;77.90;;;;;;5029628;28;20049;-70
2022/08/02 05:14:33;;;;;;;0.00;0.00;;;15.10;77.70;;;;;;5011699;28;20517;-70
2022/08/02 05:16:59;;;;;;;0.00;0.00;;;15.10;77.40;;;;;;5028730;28;20037;-70
2022/08/02 05:19:24;;;;;;;0.00;0.00;;;15.10;77.50;;;;;;5028006;28;20088;-70
2022/08/02 05:21:50;;;;;;;0.00;0.00;;;15.10;77.60;;;;;;5029404;28;20041;-70
2022/08/02 05:24:15;;;;;;;0.00;0.00;;;15.20;77.30;;;;;;5027815;28;20463;-70
2022/08/02 05:26:41;;;;;;;0.00;0.00;;;15.20;77.40;;;;;;5029499;28;20124;-70
2022/08/02 05:29:06;;;;;;;0.00;0.00;;;15.20;77.50;;;;;;5028965;28;20057;-70
2022/08/02 05:31:32;;;;;;;0.00;0.00;;;15.20;78.00;;;;;;5028509;28;20482;-70
2022/08/02 05:33:57;;;;;;;0.00;0.00;;;15.30;77.50;;;;;;5027613;28;20093;-70
2022/08/02 05:36:23;;;;;;;0.00;0.00;;;15.30;77.60;;;;;;5028773;28;20057;-70
2022/08/02 05:38:52;;;;;;;2.17;1.25;;;15.40;77.60;;;;;;5028103;28;20057;-70
2022/08/02 05:41:19;;;;;;;0.00;0.00;;;15.50;77.50;;;;;;5026999;28;20037;-70
2022/08/02 05:43:45;;;;;;;0.00;0.00;;;15.60;77.60;;;;;;5031696;28;20045;-70
2022/08/02 05:46:11;;;;;;;0.28;0.28;;;15.70;77.50;;;;;;5025980;28;20062;-70
2022/08/02 05:48:37;;;;;;;0.00;0.00;;;15.80;77.30;;;;;;5011115;28;20064;-70
2022/08/02 05:51:07;;;;;;;0.00;0.00;;;16.00;78.00;;;;;;5029294;28;20041;-70
2022/08/02 05:53:44;;;;;;;0.00;0.00;;;16.00;78.10;;;;;;5027171;28;20056;-70
2022/08/02 05:56:21;;;;;;;0.00;0.00;;;16.10;77.60;;;;;;5026228;28;20086;-70
2022/08/02 05:58:55;;;;;;;0.00;0.00;;;16.20;77.60;;;;;;5028608;28;20062;-70
2022/08/02 06:01:32;;;;;;;0.00;0.00;;;16.30;77.30;;;;;;5026952;28;20056;-70
2022/08/02 06:03:59;;;;;;;0.00;0.00;;;16.40;77.30;;;;;;5028870;28;20053;-70
2022/08/02 06:06:26;;;;;;;0.00;0.00;;;16.40;77.40;;;;;;5028790;28;20056;-70
2022/08/02 06:08:59;;;;;;;0.15;0.15;;;16.50;77.30;;;;;;5028134;28;20045;-70
2022/08/02 06:11:42;;;;;;;0.00;0.00;;;16.60;77.50;;;;;;5028807;28;20034;-70
2022/08/02 06:14:09;;;;;;;0.00;0.00;;;16.60;77.10;;;;;;5013576;28;20053;-70
2022/08/02 06:16:35;;;;;;;0.00;0.00;;;16.60;77.20;;;;;;5027896;28;20050;-70
2022/08/02 06:19:03;;;;;;;0.00;0.00;;;16.70;77.20;;;;;;5008881;28;20458;-70
2022/08/02 06:21:28;;;;;;;0.00;0.00;;;16.80;77.20;;;;;;5021636;28;20049;-70
2022/08/02 06:23:57;;;;;;;0.00;0.00;;;16.80;76.80;;;;;;5028362;28;20053;-70
2022/08/02 06:26:23;;;;;;;0.00;0.00;;;16.80;77.00;;;;;;5028332;28;20056;-70
2022/08/02 06:28:51;;;;;;;0.00;0.00;;;16.90;77.20;;;;;;5026089;28;20060;-69
2022/08/02 06:31:17;;;;;;;0.10;0.10;;;17.00;77.00;;;;;;5011237;28;20048;-70
2022/08/02 06:33:43;;;;;;;0.00;0.00;;;17.00;77.10;;;;;;5024672;28;20057;-70
2022/08/02 06:36:09;;;;;;;0.00;0.00;;;17.10;76.70;;;;;;5024489;28;20442;-70
2022/08/02 06:38:46;;;;;;;0.00;0.00;;;17.10;76.30;;;;;;5009604;28;20053;-70
2022/08/02 06:41:16;;;;;;;0.00;0.00;;;17.20;76.10;;;;;;5026205;28;20045;-70
2022/08/02 06:43:53;;;;;;;0.00;0.00;;;17.30;75.80;;;;;;5027009;28;20061;-70
2022/08/02 06:46:19;;;;;;;0.00;0.00;;;17.40;76.00;;;;;;5027291;28;20061;-70
2022/08/02 06:48:45;;;;;;;0.00;0.00;;;17.50;75.60;;;;;;5024457;28;20057;-70
2022/08/02 06:51:12;;;;;;;0.00;0.00;;;17.50;75.70;;;;;;5027491;28;20041;-70
2022/08/02 06:53:38;;;;;;;0.00;0.00;;;17.60;75.80;;;;;;5028167;28;20107;-70
2022/08/02 06:56:04;;;;;;;0.00;0.00;;;17.60;75.40;;;;;;5027987;28;20033;-70
2022/08/02 06:58:30;;;;;;;0.00;0.00;;;17.70;75.30;;;;;;5027827;28;20084;-70
2022/08/02 07:00:56;;;;;;;0.00;0.00;;;17.70;75.10;;;;;;5026257;28;20463;-70
2022/08/02 07:03:24;;;;;;;0.10;0.10;;;17.80;74.80;;;;;;5027800;28;20095;-70
2022/08/02 07:05:50;;;;;;;0.00;0.00;;;17.80;74.60;;;;;;5026223;28;20045;-70
2022/08/02 07:08:16;;;;;;;0.00;0.00;;;17.90;74.40;;;;;;5024174;28;20092;-70
2022/08/02 07:10:42;;;;;;;0.00;0.00;;;17.90;74.00;;;;;;5025051;28;20049;-70
2022/08/02 07:13:07;;;;;;;0.00;0.00;;;18.00;73.40;;;;;;5024747;28;20050;-70
2022/08/02 07:15:33;;;;;;;0.00;0.00;;;18.10;73.10;;;;;;5021155;28;20103;-70
2022/08/02 07:17:59;;;;;;;0.00;0.00;;;18.10;73.30;;;;;;5026098;28;20053;-70
2022/08/02 07:20:24;;;;;;;0.00;0.00;;;18.30;73.40;;;;;;5025393;28;20041;-70
2022/08/02 07:22:50;;;;;;;0.10;0.10;;;18.30;73.40;;;;;;5027024;28;21318;-70
2022/08/02 07:25:16;;;;;;;0.00;0.00;;;18.40;73.10;;;;;;5027907;28;20429;-70
2022/08/02 07:27:42;;;;;;;0.20;0.20;;;18.50;72.80;;;;;;5017323;28;20084;-69
2022/08/02 07:30:08;;;;;;;0.00;0.00;;;18.60;72.30;;;;;;5010199;28;20072;-71
2022/08/02 07:32:33;;;;;;;0.00;0.00;;;18.70;72.30;;;;;;5005544;28;20768;-70
2022/08/02 07:35:00;;;;;;;2.85;0.63;;;18.80;72.10;;;;;;5015283;28;20049;-70
2022/08/02 07:37:31;;;;;;;0.00;0.00;;;18.80;71.60;;;;;;5026579;28;20041;-70
2022/08/02 07:39:56;;;;;;;0.10;0.10;;;18.90;70.90;;;;;;5028056;28;20052;-71
2022/08/02 07:42:23;;;;;;;0.00;0.00;;;19.00;71.20;;;;;;5028097;28;20037;-71
2022/08/02 07:44:49;;;;;;;0.00;0.00;;;19.10;71.30;;;;;;5025987;28;20116;-71
2022/08/02 07:47:14;;;;;;;0.00;0.00;;;19.20;70.80;;;;;;5029789;28;20049;-69
2022/08/02 07:49:40;;;;;;;0.00;0.00;;;19.30;70.90;;;;;;5029189;28;20048;-67
2022/08/02 07:52:06;;;;;;;0.00;0.00;;;19.30;71.00;;;;;;5029083;28;20052;-69
2022/08/02 07:54:32;;;;;;;0.22;0.22;;;19.40;70.90;;;;;;5030218;28;20047;-65
2022/08/02 07:56:57;;;;;;;0.00;0.00;;;19.50;70.90;;;;;;5028849;28;20103;-68
2022/08/02 07:59:23;;;;;;;0.20;0.20;;;19.60;71.00;;;;;;5027029;28;20056;-69
2022/08/02 08:01:50;;;;;;;0.00;0.00;;;19.60;71.00;;;;;;5027664;28;20056;-69
2022/08/02 08:04:16;;;;;;;0.00;0.00;;;19.60;70.80;;;;;;5017277;28;20099;-68
2022/08/02 08:06:42;;;;;;;0.00;0.00;;;19.60;71.00;;;;;;5029535;28;20037;-69
2022/08/02 08:09:11;;;;;;;0.00;0.00;;;19.70;71.20;;;;;;5032207;28;20132;-68
2022/08/02 08:11:36;;;;;;;0.00;0.00;;;19.80;70.90;;;;;;5021275;28;20129;-68
2022/08/02 08:14:03;;;;;;;0.00;0.00;;;19.90;71.00;;;;;;5032929;28;20112;-68
2022/08/02 08:16:29;;;;;;;0.05;0.05;;;20.00;71.00;;;;;;5028697;28;20516;-68
2022/08/02 08:18:56;;;;;;;0.00;0.00;;;20.10;70.90;;;;;;5028293;28;20041;-69
2022/08/02 08:21:21;;;;;;;0.00;0.00;;;20.10;70.50;;;;;;5030111;28;20040;-69
2022/08/02 08:23:47;;;;;;;0.22;0.22;;;20.20;70.30;;;;;;5029696;28;20033;-70
2022/08/02 08:26:12;;;;;;;0.00;0.00;;;20.30;70.10;;;;;;5028795;28;20068;-68
2022/08/02 08:28:38;;;;;;;0.00;0.00;;;20.40;69.70;;;;;;5030010;28;20041;-68
2022/08/02 08:31:04;;;;;;;0.00;0.00;;;20.50;69.80;;;;;;5026812;28;20047;-68
2022/08/02 08:33:30;;;;;;;0.00;0.00;;;20.60;69.50;;;;;;5028547;28;20042;-68
2022/08/02 08:35:56;;;;;;;0.00;0.00;;;20.60;69.10;;;;;;5029447;28;20045;-68
2022/08/02 08:38:22;;;;;;;0.00;0.00;;;20.60;69.10;;;;;;5022536;28;20132;-68
2022/08/02 08:40:51;;;;;;;0.00;0.00;;;20.80;68.80;;;;;;5030581;28;20521;-68
2022/08/02 08:43:16;;;;;;;0.00;0.00;;;20.90;68.70;;;;;;5029750;28;20048;-69
2022/08/02 08:45:43;;;;;;;0.00;0.00;;;21.00;68.90;;;;;;5028768;28;20053;-70
2022/08/02 08:48:17;;;;;;;0.00;0.00;;;21.00;68.10;;;;;;5029737;28;20051;-70
2022/08/02 08:50:49;;;;;;;0.00;0.00;;;21.10;68.80;;;;;;5029252;28;20135;-69
2022/08/02 08:53:16;;;;;;;0.00;0.00;;;21.20;69.30;;;;;;5030486;28;20095;-70
2022/08/02 08:55:43;;;;;;;0.40;0.40;;;21.20;68.80;;;;;;5030596;28;20045;-67
2022/08/02 08:58:11;;;;;;;0.00;0.00;;;21.40;68.40;;;;;;5028342;28;20064;-72
2022/08/02 09:00:36;;;;;;;0.00;0.00;;;21.50;68.50;;;;;;5029588;28;20052;-72
2022/08/02 09:03:07;;;;;;;0.57;0.55;;;21.60;68.50;;;;;;5029763;28;20119;-73
2022/08/02 09:05:38;;;;;;;0.17;0.17;;;21.60;67.80;;;;;;5029159;28;20096;-71
2022/08/02 09:08:05;;;;;;;0.00;0.00;;;21.70;67.90;;;;;;5021602;28;20137;-72
2022/08/02 09:10:39;;;;;;;0.00;0.00;;;21.80;67.20;;;;;;5012754;28;20045;-72
2022/08/02 09:13:05;;;;;;;0.63;0.63;;;21.90;67.80;;;;;;5029652;28;20087;-71
2022/08/02 09:15:30;;;;;;;1.55;0.90;;;21.90;67.10;;;;;;5028559;28;20073;-72
2022/08/02 09:17:56;;;;;;;0.00;0.00;;;22.00;67.80;;;;;;5030373;28;20049;-68
2022/08/02 09:20:22;;;;;;;0.00;0.00;;;22.10;67.70;;;;;;5030055;28;20038;-69
2022/08/02 09:23:05;;;;;;;0.00;0.00;;;22.10;67.40;;;;;;5029956;28;20038;-69
2022/08/02 09:25:31;;;;;;;0.00;0.00;;;22.30;67.20;;;;;;5029998;28;20040;-65
2022/08/02 09:27:58;;;;;;;0.30;0.30;;;22.30;66.50;;;;;;5028974;28;20124;-67
2022/08/02 09:30:25;;;;;;;0.03;0.03;;;22.50;66.70;;;;;;5029804;28;20171;-68
2022/08/02 09:32:51;;;;;;;0.00;0.00;;;22.50;66.50;;;;;;5029742;28;20034;-68
2022/08/02 09:35:38;;;;;;;0.00;0.00;;;22.50;66.00;;;;;;5029998;28;20089;-68
2022/08/02 09:38:09;;;;;;;0.10;0.10;;;22.50;66.30;;;;;;5029250;28;20041;-68
2022/08/02 09:40:36;;;;;;;0.00;0.00;;;22.60;66.90;;;;;;5028907;28;20045;-68
2022/08/02 09:43:02;;;;;;;0.52;0.28;;;22.70;66.60;;;;;;5029534;28;20042;-68
2022/08/02 09:45:35;;;;;;;0.00;0.00;;;22.70;66.40;;;;;;5029528;28;20107;-68
2022/08/02 09:48:05;;;;;;;0.00;0.00;;;22.80;66.60;;;;;;5029609;28;20072;-67
2022/08/02 09:50:30;;;;;;;0.22;0.22;;;22.80;67.30;;;;;;5029073;28;20498;-68
2022/08/02 09:52:56;;;;;;;0.00;0.00;;;23.00;66.60;;;;;;5029365;28;20047;-66
2022/08/02 09:55:23;;;;;;;0.00;0.00;;;23.10;67.10;;;;;;5028711;28;20073;-67
2022/08/02 09:57:49;;;;;;;3.83;2.20;;;23.10;66.80;;;;;;5026252;28;20045;-67
2022/08/02 10:00:14;;;;;;;0.00;0.00;;;23.10;66.70;;;;;;5026631;28;20041;-67
2022/08/02 10:03:06;;;;;;;0.20;0.20;;;23.10;67.10;;;;;;5029375;28;20144;-67
2022/08/02 10:05:54;;;;;;;0.00;0.00;;;23.10;67.80;;;;;;5027573;28;20572;-67
2022/08/02 10:08:20;;;;;;;0.00;0.00;;;23.00;68.00;;;;;;5024597;28;20053;-67
2022/08/02 10:10:46;;;;;;;3.30;0.32;;;23.00;68.30;;;;;;5027914;28;20528;-65
2022/08/02 10:13:12;;;;;;;0.00;0.00;;;23.10;68.60;;;;;;5027766;28;20049;-65
2022/08/02 10:15:38;;;;;;;0.45;0.45;;;23.10;68.50;;;;;;5028197;28;20099;-65
2022/08/02 10:18:07;;;;;;;0.00;0.00;;;23.10;69.30;;;;;;5029005;28;20033;-66
2022/08/02 10:20:43;;;;;;;0.00;0.00;;;23.20;69.80;;;;;;5028431;28;20091;-65
2022/08/02 10:23:12;;;;;;;0.10;0.10;;;23.20;69.10;;;;;;5029103;28;20064;-65
2022/08/02 10:25:39;;;;;;;0.00;0.00;;;23.30;69.20;;;;;;5025927;28;20048;-66
2022/08/02 10:28:09;;;;;;;0.00;0.00;;;23.30;69.20;;;;;;5025751;28;20037;-65
2022/08/02 10:30:38;;;;;;;0.08;0.08;;;23.40;68.50;;;;;;5025874;28;20052;-65
2022/08/02 10:33:06;;;;;;;0.03;0.03;;;23.50;68.50;;;;;;5021308;28;20080;-64
2022/08/02 10:35:35;;;;;;;0.13;0.13;;;23.50;68.50;;;;;;5028042;28;20435;-66
2022/08/02 10:38:06;;;;;;;1.02;0.45;;;23.40;68.50;;;;;;5029023;28;20033;-65
2022/08/02 10:40:42;;;;;;;;;;;23.40;69.20;;;;;;5028562;28;20045;-64
2022/08/02 10:43:07;;;;;;;0.05;0.05;;;23.50;69.30;;;;;;5029997;28;19925;-65
2022/08/02 10:45:33;;;;;;;0.10;0.10;;;23.50;68.90;;;;;;5028865;28;20529;-64
2022/08/02 10:48:08;;;;;;;0.80;0.63;;;23.50;69.00;;;;;;5030047;28;20100;-64
2022/08/02 10:50:46;;;;;;;0.65;0.65;;;23.60;68.80;;;;;;5027834;28;20042;-65
2022/08/02 10:53:33;;;;;;;0.00;0.00;;;23.50;69.50;;;;;;5028172;28;20463;-64
2022/08/02 10:56:04;;;;;;;0.88;0.35;;;23.40;69.30;;;;;;5026347;28;20041;-64
2022/08/02 10:58:33;;;;;;;0.05;0.05;;;23.30;69.70;;;;;;5029208;28;20038;-64
2022/08/02 11:01:25;;;;;;;0.35;0.35;;;23.30;69.50;;;;;;5032311;28;20053;-63
2022/08/02 11:03:57;;;;;;;0.00;0.00;;;23.30;69.30;;;;;;5031888;28;20052;-63
2022/08/02 11:06:22;;;;;;;0.32;0.28;;;23.20;69.40;;;;;;5025557;28;20413;-66
2022/08/02 11:08:48;;;;;;;0.10;0.10;;;23.20;70.00;;;;;;5030747;28;20045;-66
2022/08/02 11:11:16;;;;;;;0.30;0.30;;;23.20;70.20;;;;;;5030461;28;20525;-64
2022/08/02 11:14:05;;;;;;;0.00;0.00;;;23.20;70.30;;;;;;5031468;28;20042;-65
2022/08/02 11:16:56;;;;;;;0.10;0.10;;;23.30;70.20;;;;;;5031361;28;20543;-65
2022/08/02 11:19:23;;;;;;;0.00;0.00;;;23.30;69.80;;;;;;5015781;28;20076;-64
2022/08/02 11:22:05;;;;;;;0.10;0.10;;;23.40;69.60;;;;;;5031231;28;20738;-66
2022/08/02 11:24:35;;;;;;;0.10;0.10;;;23.50;69.40;;;;;;5031633;28;20063;-64
2022/08/02 11:27:08;;;;;;;0.20;0.20;;;23.60;69.10;;;;;;5012694;28;20096;-65
2022/08/02 11:29:43;;;;;;;0.00;0.00;;;23.70;69.50;;;;;;5014233;28;20042;-65
2022/08/02 11:32:21;;;;;;;0.00;0.00;;;23.60;68.60;;;;;;5032511;28;20057;-64
2022/08/02 11:34:50;;;;;;;0.10;0.10;;;23.60;68.40;;;;;;5032599;28;20049;-65
2022/08/02 11:37:32;;;;;;;0.10;0.10;;;23.60;68.70;;;;;;5030315;28;20077;-64
2022/08/02 11:39:57;;;;;;;0.00;0.00;;;23.60;68.90;;;;;;5027146;28;20049;-65
2022/08/02 11:42:33;;;;;;;0.30;0.30;;;23.70;68.80;;;;;;5024686;28;20052;-65
2022/08/02 11:44:59;;;;;;;0.00;0.00;;;23.60;68.70;;;;;;5027347;28;20152;-65
2022/08/02 11:47:25;;;;;;;3.08;1.27;;;23.60;68.80;;;;;;5031435;28;20128;-63
2022/08/02 11:49:50;;;;;;;0.00;0.00;;;23.60;68.70;;;;;;5028030;28;20047;-66
2022/08/02 11:52:16;;;;;;;0.38;0.35;;;23.60;68.60;;;;;;5030314;28;20052;-67
2022/08/02 11:54:42;;;;;;;0.08;0.08;;;23.60;69.10;;;;;;5030373;28;20099;-67
2022/08/02 11:57:17;;;;;;;0.00;0.00;;;23.60;69.20;;;;;;5029329;28;20122;-67
2022/08/02 11:59:45;;;;;;;0.00;0.00;;;23.50;68.80;;;;;;5030111;28;20160;-67
2022/08/02 12:02:12;;;;;;;0.10;0.10;;;23.50;69.10;;;;;;5024193;28;20095;-67
2022/08/02 12:04:40;;;;;;;0.10;0.10;;;23.50;69.40;;;;;;5028071;28;20041;-67
2022/08/02 12:07:06;;;;;;;0.08;0.08;;;23.40;69.50;;;;;;5030786;28;20033;-67
2022/08/02 12:09:34;;;;;;;0.40;0.40;;;23.30;69.60;;;;;;5031073;28;20125;-67
2022/08/02 12:12:01;;;;;;;0.70;0.70;;;23.30;71.00;;;;;;5029343;28;20103;-67
2022/08/02 12:14:28;;;;;;;0.00;0.00;;;23.20;70.30;;;;;;5025507;28;20068;-67
2022/08/02 12:19:39;;;;;;;0.05;0.05;;;23.10;70.70;;;;;;5028447;28;20503;-66
2022/08/02 12:22:22;;;;;;;0.15;0.15;;;23.00;70.80;;;;;;5028503;28;20413;-66
2022/08/02 12:24:50;;;;;;;0.00;0.00;;;22.90;71.10;;;;;;5030783;28;20045;-67
2022/08/02 12:27:34;;;;;;;0.00;0.00;;;22.90;71.30;;;;;;5029491;28;20049;-67
2022/08/02 12:30:12;;;;;;;0.10;0.10;;;22.80;71.30;;;;;;5029377;28;20061;-67
2022/08/02 12:32:38;;;;;;;0.00;0.00;;;22.80;71.70;;;;;;5018566;28;20046;-66
2022/08/02 12:35:15;;;;;;;1.75;0.60;;;22.80;72.00;;;;;;5030824;28;20049;-67
2022/08/02 12:37:46;;;;;;;0.00;0.00;;;22.80;72.40;;;;;;5021655;28;20495;-66
2022/08/02 12:40:31;;;;;;;0.00;0.00;;;22.80;72.30;;;;;;5028328;28;20033;-67
2022/08/02 12:42:59;;;;;;;0.00;0.00;;;22.80;72.30;;;;;;5030188;28;20042;-67
2022/08/02 12:45:28;;;;;;;0.00;0.00;;;22.80;72.40;;;;;;5029831;28;20057;-67
2022/08/02 12:47:56;;;;;;;0.00;0.00;;;22.70;72.50;;;;;;5029756;28;20057;-67
2022/08/02 12:50:33;;;;;;;0.00;0.00;;;22.70;72.50;;;;;;5027196;28;20084;-66
2022/08/02 12:53:13;;;;;;;4.68;0.40;;;22.80;72.40;;;;;;5029431;28;20037;-67
2022/08/02 12:55:57;;;;;;;0.38;0.38;;;22.80;72.50;;;;;;5030707;28;20452;-69
2022/08/02 12:58:23;;;;;;;0.00;0.00;;;22.80;72.80;;;;;;5030591;28;20042;-65